createdAt,value
2022-12-24T00:01:24.627Z,96867.75
2022-12-24T00:03:52.798Z,96871.03
2022-12-24T00:06:23.556Z,96852.28
2022-12-24T00:08:52.348Z,96712.09
2022-12-24T00:11:21.147Z,96854.16
2022-12-24T00:13:49.666Z,96766.16
2022-12-24T00:16:19.266Z,96851.72
2022-12-24T00:18:47.448Z,96876.66
2022-12-24T00:21:16.207Z,96882.00
2022-12-24T00:23:44.772Z,96888.06
2022-12-24T00:26:13.604Z,96603.97
2022-12-24T00:28:42.155Z,96885.50
2022-12-24T00:31:13.249Z,96782.69
2022-12-24T00:33:43.217Z,96880.22
2022-12-24T00:36:11.784Z,96866.28
2022-12-24T00:38:40.546Z,96858.41
2022-12-24T00:41:25.117Z,96855.84
2022-12-24T00:43:54.875Z,96831.44
2022-12-24T00:46:23.561Z,96870.09
2022-12-24T00:48:53.393Z,96826.59
2022-12-24T00:51:22.192Z,96893.56
2022-12-24T00:53:50.902Z,96912.66
2022-12-24T00:56:19.684Z,96897.31
2022-12-24T00:58:48.083Z,96918.69
2022-12-24T01:01:16.957Z,96928.22
2022-12-24T01:03:45.329Z,96930.75
2022-12-24T01:06:16.832Z,96913.56
2022-12-24T01:08:45.846Z,96929.75
2022-12-24T01:11:14.670Z,96929.75
2022-12-24T01:13:43.001Z,96928.94
2022-12-24T01:16:19.326Z,96928.13
2022-12-24T01:18:47.633Z,96875.00
2022-12-24T01:21:17.243Z,96916.09
2022-12-24T01:23:45.616Z,96910.88
2022-12-24T01:26:13.799Z,96930.59
2022-12-24T01:28:42.141Z,96939.22
2022-12-24T01:31:14.232Z,96946.94
2022-12-24T01:33:42.880Z,96927.28
2022-12-24T01:36:11.701Z,96926.31
2022-12-24T01:38:41.582Z,96898.22
2022-12-24T01:41:33.263Z,96767.53
2022-12-24T01:44:25.268Z,96927.94
2022-12-24T01:47:08.823Z,96941.84
2022-12-24T01:49:38.868Z,96933.31
2022-12-24T01:52:11.001Z,96927.22
2022-12-24T01:54:45.889Z,96938.53
2022-12-24T01:57:20.799Z,96937.63
2022-12-24T01:59:53.336Z,96968.75
2022-12-24T02:02:22.992Z,96968.78
2022-12-24T02:04:57.735Z,96967.00
2022-12-24T02:07:27.020Z,96925.09
2022-12-24T02:10:00.225Z,96972.97
2022-12-24T02:12:31.051Z,96883.91
2022-12-24T02:15:00.658Z,96951.53
2022-12-24T02:17:36.035Z,96963.56
2022-12-24T02:20:33.289Z,96963.72
2022-12-24T02:23:37.818Z,96964.59
2022-12-24T02:26:25.067Z,96962.91
2022-12-24T02:29:19.769Z,96962.94
2022-12-24T02:31:55.391Z,96947.53
2022-12-24T02:34:29.921Z,96955.03
2022-12-24T02:37:05.329Z,96922.00
2022-12-24T02:39:41.731Z,96976.69
2022-12-24T02:42:21.392Z,96993.03
2022-12-24T02:44:56.290Z,97000.06
2022-12-24T02:47:33.597Z,96998.44
2022-12-24T02:50:05.699Z,96859.63
2022-12-24T02:52:38.152Z,96913.69
2022-12-24T02:55:11.773Z,96993.19
2022-12-24T02:58:01.395Z,96981.28
2022-12-24T03:00:42.506Z,96999.44
2022-12-24T03:03:27.993Z,96958.25
2022-12-24T03:06:08.112Z,96999.47
2022-12-24T03:08:47.772Z,97001.22
2022-12-24T03:11:18.772Z,96890.50
2022-12-24T03:13:51.211Z,97003.53
2022-12-24T03:16:27.701Z,97005.16
2022-12-24T03:19:02.093Z,96992.25
2022-12-24T03:21:35.789Z,97006.13
2022-12-24T03:24:06.382Z,97023.44
2022-12-24T03:26:36.936Z,97014.88
2022-12-24T03:29:09.414Z,97017.47
2022-12-24T03:31:46.180Z,97021.88
2022-12-24T03:34:18.795Z,97029.75
2022-12-24T03:36:52.101Z,97021.94
2022-12-24T03:39:22.481Z,97022.94
2022-12-24T03:41:53.496Z,97034.16
2022-12-24T03:44:23.631Z,97041.22
2022-12-24T03:46:54.232Z,97037.84
2022-12-24T03:49:25.776Z,97041.31
2022-12-24T03:51:56.418Z,97040.44
2022-12-24T03:54:26.904Z,97048.19
2022-12-24T03:56:56.840Z,97053.38
2022-12-24T03:59:28.671Z,97051.72
2022-12-24T04:01:58.820Z,97063.81
2022-12-24T04:04:30.852Z,97046.75
2022-12-24T04:07:01.514Z,97078.50
2022-12-24T04:09:31.653Z,96738.94
2022-12-24T04:12:01.959Z,97058.13
2022-12-24T04:14:32.051Z,97079.66
2022-12-24T04:17:02.193Z,97096.78
2022-12-24T04:19:34.532Z,96923.47
2022-12-24T04:22:04.812Z,97074.59
2022-12-24T04:24:35.352Z,97095.22
2022-12-24T04:27:05.512Z,97120.28
2022-12-24T04:29:35.774Z,97091.78
2022-12-24T04:32:05.945Z,97060.06
2022-12-24T04:34:37.736Z,97103.94
2022-12-24T04:37:07.911Z,97097.88
2022-12-24T04:39:38.131Z,96954.47
2022-12-24T04:42:08.393Z,97080.72
2022-12-24T04:44:38.482Z,97087.75
2022-12-24T04:47:08.413Z,97050.84
2022-12-24T04:49:40.394Z,97100.69
2022-12-24T04:52:10.394Z,97094.66
2022-12-24T04:54:40.573Z,97085.19
2022-12-24T04:57:11.053Z,97094.69
2022-12-24T04:59:41.704Z,97096.38
2022-12-24T05:02:13.008Z,97102.44
2022-12-24T05:04:45.413Z,97103.28
2022-12-24T05:07:15.711Z,97122.28
2022-12-24T05:09:46.147Z,97138.63
2022-12-24T05:12:16.116Z,97135.16
2022-12-24T05:14:46.413Z,97138.66
2022-12-24T05:17:16.568Z,97131.84
2022-12-24T05:19:48.099Z,97139.63
2022-12-24T05:22:34.856Z,97136.22
2022-12-24T05:25:22.401Z,97120.78
2022-12-24T05:27:52.433Z,97118.16
2022-12-24T05:30:22.740Z,97151.75
2022-12-24T05:32:53.113Z,97148.28
2022-12-24T05:35:24.873Z,97143.13
2022-12-24T05:37:55.015Z,97125.94
2022-12-24T05:40:24.993Z,97148.28
2022-12-24T05:42:55.617Z,97132.81
2022-12-24T05:45:25.752Z,97094.97
2022-12-24T05:47:55.812Z,97147.47
2022-12-24T05:50:27.414Z,97145.69
2022-12-24T05:52:57.636Z,97133.63
2022-12-24T05:55:28.915Z,97140.53
2022-12-24T05:57:59.154Z,97119.88
2022-12-24T06:00:29.333Z,96999.59
2022-12-24T06:02:59.455Z,97134.47
2022-12-24T06:05:31.643Z,97156.88
2022-12-24T06:08:01.934Z,97162.91
2022-12-24T06:10:31.856Z,97176.75
2022-12-24T06:13:02.781Z,97153.50
2022-12-24T06:15:32.815Z,97156.09
2022-12-24T06:18:02.774Z,97154.38
2022-12-24T06:20:34.749Z,97172.44
2022-12-24T06:23:04.833Z,97162.16
2022-12-24T06:25:34.957Z,97179.34
2022-12-24T06:28:04.871Z,97150.97
2022-12-24T06:30:35.572Z,97191.50
2022-12-24T06:33:05.861Z,97175.94
2022-12-24T06:35:37.850Z,97108.03
2022-12-24T06:38:07.837Z,97186.28
2022-12-24T06:40:40.076Z,97180.25
2022-12-24T06:43:10.269Z,97151.88
2022-12-24T06:45:40.611Z,97186.28
2022-12-24T06:48:10.774Z,97202.63
2022-12-24T06:50:43.216Z,97217.28
2022-12-24T06:53:13.427Z,97210.38
2022-12-24T06:55:43.415Z,97204.34
2022-12-24T06:58:13.795Z,97187.13
2022-12-24T07:00:44.013Z,97205.22
2022-12-24T07:03:14.808Z,97206.97
2022-12-24T07:05:46.755Z,97185.44
2022-12-24T07:08:16.756Z,97213.81
2022-12-24T07:10:53.768Z,97200.91
2022-12-24T07:13:24.096Z,97212.06
2022-12-24T07:16:00.664Z,97198.31
2022-12-24T07:18:31.511Z,97157.84
2022-12-24T07:21:03.235Z,97188.81
2022-12-24T07:23:33.656Z,97232.66
2022-12-24T07:26:04.795Z,97243.00
2022-12-24T07:28:35.225Z,97239.53
2022-12-24T07:31:05.919Z,97242.03
2022-12-24T07:33:35.880Z,97281.75
2022-12-24T07:36:09.721Z,97274.84
2022-12-24T07:38:41.074Z,97263.66
2022-12-24T07:41:11.219Z,97261.00
2022-12-24T07:43:41.540Z,97264.47
2022-12-24T07:46:11.911Z,97275.63
2022-12-24T07:48:41.893Z,97287.69
2022-12-24T07:51:13.770Z,97282.50
2022-12-24T07:53:48.467Z,97287.66
2022-12-24T07:56:19.076Z,97287.66
2022-12-24T07:58:52.339Z,97287.66
2022-12-24T08:01:22.930Z,97262.72
2022-12-24T08:03:55.195Z,97298.03
2022-12-24T08:06:27.376Z,97280.84
2022-12-24T08:08:57.494Z,97298.88
2022-12-24T08:11:27.745Z,97304.88
2022-12-24T08:13:57.854Z,97314.34
2022-12-24T08:16:28.122Z,97221.34
2022-12-24T08:18:58.036Z,97314.25
2022-12-24T08:21:29.762Z,97318.53
2022-12-24T08:23:59.875Z,97327.13
2022-12-24T08:26:29.954Z,97205.75
2022-12-24T08:28:59.964Z,97329.69
2022-12-24T08:31:29.900Z,97333.13
2022-12-24T08:34:00.016Z,97335.66
2022-12-24T08:36:31.734Z,97339.09
2022-12-24T08:39:04.217Z,97297.69
2022-12-24T08:41:34.536Z,97355.53
2022-12-24T08:44:04.774Z,97348.59
2022-12-24T08:46:34.804Z,97340.81
2022-12-24T08:49:04.775Z,97329.56
2022-12-24T08:51:36.499Z,97345.88
2022-12-24T08:54:07.134Z,97324.41
2022-12-24T08:56:37.414Z,97346.00
2022-12-24T08:59:07.661Z,97344.28
2022-12-24T09:01:37.988Z,97341.63
2022-12-24T09:04:08.413Z,97339.00
2022-12-24T09:06:40.253Z,97307.97
2022-12-24T09:09:10.544Z,97347.59
2022-12-24T09:11:40.794Z,97371.84
2022-12-24T09:14:10.817Z,97325.41
2022-12-24T09:16:41.187Z,97336.59
2022-12-24T09:19:11.214Z,97379.56
2022-12-24T09:21:42.953Z,97346.00
2022-12-24T09:24:13.093Z,97370.94
2022-12-24T09:26:43.817Z,97381.25
2022-12-24T09:29:14.332Z,97392.44
2022-12-24T09:31:44.829Z,97395.97
2022-12-24T09:34:15.494Z,97402.81
2022-12-24T09:36:46.974Z,97330.53
2022-12-24T09:39:17.794Z,97403.56
2022-12-24T09:41:58.697Z,97423.41
2022-12-24T09:44:41.574Z,97414.75
2022-12-24T09:47:25.119Z,97415.63
2022-12-24T09:49:57.696Z,97385.44
2022-12-24T09:52:37.811Z,97410.25
2022-12-24T09:55:20.413Z,97417.03
2022-12-24T09:57:52.734Z,97289.53
2022-12-24T10:00:25.892Z,97313.50
2022-12-24T10:02:56.170Z,97397.66
2022-12-24T10:05:35.893Z,97394.22
2022-12-24T10:08:17.773Z,97414.81
2022-12-24T10:10:54.615Z,97411.47
2022-12-24T10:13:40.236Z,97425.13
2022-12-24T10:16:20.029Z,97418.13
2022-12-24T10:18:58.853Z,97332.03
2022-12-24T10:21:39.913Z,97398.84
2022-12-24T10:24:19.889Z,97423.63
2022-12-24T10:26:55.844Z,97424.41
2022-12-24T10:29:30.593Z,97411.25
2022-12-24T10:32:18.792Z,97405.13
2022-12-24T10:34:54.092Z,97420.56
2022-12-24T10:37:29.441Z,97429.06
2022-12-24T10:40:03.383Z,97399.50
2022-12-24T10:42:50.748Z,97406.22
2022-12-24T10:45:24.841Z,97433.47
2022-12-24T10:48:01.207Z,97439.22
2022-12-24T10:50:35.994Z,97444.94
2022-12-24T10:53:17.777Z,97443.66
2022-12-24T10:55:50.829Z,97457.09
2022-12-24T10:58:23.052Z,97467.94
2022-12-24T11:00:54.913Z,97460.38
2022-12-24T11:03:31.084Z,97460.25
2022-12-24T11:06:10.873Z,97446.44
2022-12-24T11:08:43.442Z,97450.25
2022-12-24T11:11:16.560Z,97446.50
2022-12-24T11:13:48.800Z,97436.28
2022-12-24T11:16:25.724Z,97457.25
2022-12-24T11:18:57.860Z,97453.94
2022-12-24T11:21:30.872Z,97460.13
2022-12-24T11:24:03.232Z,97462.69
2022-12-24T11:26:35.064Z,97460.16
2022-12-24T11:29:21.773Z,97478.94
2022-12-24T11:31:53.538Z,97467.69
2022-12-24T11:34:29.867Z,97476.47
2022-12-24T11:37:15.144Z,97467.13
2022-12-24T11:39:48.949Z,97466.56
2022-12-24T11:42:33.854Z,97472.16
2022-12-24T11:45:08.778Z,97453.91
2022-12-24T11:47:42.853Z,97458.97
2022-12-24T11:50:29.174Z,97461.97
2022-12-24T11:53:06.418Z,97468.91
2022-12-24T11:55:46.836Z,97462.75
2022-12-24T11:58:30.792Z,97464.66
2022-12-24T12:01:10.196Z,97451.75
2022-12-24T12:03:50.738Z,97447.63
2022-12-24T12:06:29.851Z,97450.00
2022-12-24T12:09:05.773Z,97464.28
2022-12-24T12:11:38.503Z,97440.50
2022-12-24T12:14:17.954Z,97356.50
2022-12-24T12:17:05.807Z,97439.94
2022-12-24T12:19:47.052Z,97431.06
2022-12-24T12:22:29.451Z,97315.69
2022-12-24T12:25:02.892Z,97427.63
2022-12-24T12:27:38.759Z,97452.97
2022-12-24T12:30:18.169Z,97440.81
2022-12-24T12:32:55.121Z,97453.31
2022-12-24T12:35:31.132Z,97446.41
2022-12-24T12:38:05.644Z,97312.34
2022-12-24T12:41:00.424Z,97445.56
2022-12-24T12:43:48.031Z,97447.78
2022-12-24T12:46:28.442Z,97436.81
2022-12-24T12:49:16.752Z,97447.34
2022-12-24T12:51:56.121Z,97449.97
2022-12-24T12:54:50.991Z,97446.38
2022-12-24T12:57:27.070Z,97435.38
2022-12-24T13:00:02.531Z,97450.06
2022-12-24T13:02:59.513Z,97454.28
2022-12-24T13:06:03.630Z,97452.84
2022-12-24T13:09:04.835Z,97451.22
2022-12-24T13:11:52.252Z,97418.22
2022-12-24T13:14:44.596Z,97436.09
2022-12-24T13:17:41.647Z,97456.41
2022-12-24T13:20:24.597Z,97447.78
2022-12-24T13:23:00.378Z,97447.69
2022-12-24T13:25:36.834Z,97454.66
2022-12-24T13:28:33.715Z,97465.25
2022-12-24T13:31:28.985Z,97453.34
2022-12-24T13:34:01.877Z,97455.25
2022-12-24T13:37:05.312Z,97458.38
2022-12-24T13:40:24.732Z,97462.38
2022-12-24T13:43:13.013Z,97482.81
2022-12-24T13:45:49.403Z,97472.72
2022-12-24T13:48:33.946Z,97502.75
2022-12-24T13:51:20.765Z,97497.78
2022-12-24T13:53:52.012Z,97512.28
2022-12-24T13:56:30.094Z,97519.41
2022-12-24T13:59:22.797Z,97514.53
2022-12-24T14:01:54.136Z,97523.34
2022-12-24T14:04:31.256Z,97524.28
2022-12-24T14:07:04.815Z,97509.34
2022-12-24T14:09:36.755Z,97548.91
2022-12-24T14:12:37.694Z,97570.44
2022-12-24T14:15:40.658Z,97553.50
2022-12-24T14:18:12.745Z,97570.44
2022-12-24T14:20:43.816Z,97550.91
2022-12-24T14:23:40.152Z,97564.53
2022-12-24T14:26:17.821Z,97558.19
2022-12-24T14:28:57.596Z,97547.38
2022-12-24T14:31:28.238Z,97562.69
2022-12-24T14:34:10.739Z,97584.31
2022-12-24T14:36:42.715Z,97587.28
2022-12-24T14:39:23.514Z,97592.63
2022-12-24T14:42:02.763Z,97588.59
2022-12-24T14:44:44.980Z,97465.59
2022-12-24T14:47:30.029Z,97612.34
2022-12-24T14:50:20.973Z,97584.94
2022-12-24T14:53:06.235Z,97586.06
2022-12-24T14:55:43.178Z,97611.25
2022-12-24T14:58:30.799Z,97623.50
2022-12-24T15:01:04.758Z,97602.81
2022-12-24T15:03:35.864Z,97629.66
2022-12-24T15:06:09.473Z,97632.53
2022-12-24T15:08:43.014Z,97643.09
2022-12-24T15:11:19.855Z,97638.94
2022-12-24T15:13:53.928Z,97645.91
2022-12-24T15:16:30.253Z,97654.69
2022-12-24T15:19:04.574Z,97652.38
2022-12-24T15:21:41.996Z,97664.72
2022-12-24T15:24:28.268Z,97652.72
2022-12-24T15:26:59.778Z,97667.63
2022-12-24T15:29:33.150Z,97679.78
2022-12-24T15:32:06.815Z,97676.38
2022-12-24T15:34:40.998Z,97658.25
2022-12-24T15:37:19.631Z,97679.97
2022-12-24T15:39:57.793Z,97714.75
2022-12-24T15:42:30.437Z,97699.25
2022-12-24T15:45:04.562Z,97695.00
2022-12-24T15:47:39.899Z,97699.34
2022-12-24T15:50:20.336Z,97657.16
2022-12-24T15:53:20.640Z,97710.66
2022-12-24T15:55:46.396Z,97695.25
2022-12-24T15:58:25.957Z,97718.63
2022-12-24T16:01:09.232Z,97723.84
2022-12-24T16:03:43.020Z,97707.34
2022-12-24T16:06:14.797Z,97722.06
2022-12-24T16:08:47.619Z,97721.25
2022-12-24T16:11:21.241Z,97715.25
2022-12-24T16:14:07.799Z,97719.59
2022-12-24T16:16:41.235Z,97708.41
2022-12-24T16:19:22.638Z,97730.00
2022-12-24T16:21:56.006Z,97705.84
2022-12-24T16:24:28.762Z,97740.44
2022-12-24T16:26:59.775Z,97735.25
2022-12-24T16:29:30.634Z,97724.06
2022-12-24T16:32:01.814Z,97742.19
2022-12-24T16:34:34.855Z,97745.56
2022-12-24T16:37:06.174Z,97750.84
2022-12-24T16:39:37.718Z,97745.69
2022-12-24T16:42:25.141Z,97645.63
2022-12-24T16:44:56.260Z,97759.59
2022-12-24T16:47:33.835Z,97761.34
2022-12-24T16:50:11.663Z,97725.09
2022-12-24T16:52:42.397Z,97757.91
2022-12-24T16:55:16.043Z,97753.59
2022-12-24T16:57:46.755Z,97752.78
2022-12-24T17:00:20.740Z,97753.63
2022-12-24T17:02:52.012Z,97758.81
2022-12-24T17:05:24.759Z,97741.56
2022-12-24T17:07:54.915Z,97754.53
2022-12-24T17:10:25.720Z,97764.91
2022-12-24T17:12:56.093Z,97734.72
2022-12-24T17:15:26.618Z,97604.34
2022-12-24T17:17:56.782Z,97764.94
2022-12-24T17:20:28.871Z,97767.53
2022-12-24T17:22:59.736Z,97743.34
2022-12-24T17:25:29.767Z,97770.16
2022-12-24T17:27:59.773Z,97768.44
2022-12-24T17:30:29.881Z,97764.09
2022-12-24T17:32:59.915Z,97775.34
2022-12-24T17:35:32.555Z,97749.41
2022-12-24T17:38:02.773Z,97773.63
2022-12-24T17:40:33.757Z,97780.56
2022-12-24T17:43:04.517Z,97783.16
2022-12-24T17:45:34.613Z,97787.47
2022-12-24T17:48:04.893Z,97771.06
2022-12-24T17:50:41.021Z,97798.75
2022-12-24T17:53:11.816Z,97799.59
2022-12-24T17:55:44.885Z,97803.91
2022-12-24T17:58:15.858Z,97804.78
2022-12-24T18:00:45.833Z,97806.50
2022-12-24T18:03:16.973Z,97744.28
2022-12-24T18:05:49.134Z,97796.16
2022-12-24T18:08:19.232Z,97815.16
2022-12-24T18:10:49.731Z,97821.22
2022-12-24T18:13:19.911Z,97813.44
2022-12-24T18:15:49.920Z,97812.53
2022-12-24T18:18:19.961Z,97812.56
2022-12-24T18:20:51.773Z,97817.75
2022-12-24T18:23:21.856Z,97805.63
2022-12-24T18:25:51.915Z,97815.13
2022-12-24T18:28:21.931Z,97821.19
2022-12-24T18:31:00.816Z,97815.16
2022-12-24T18:33:31.414Z,97817.75
2022-12-24T18:36:03.397Z,97820.34
2022-12-24T18:38:33.813Z,97826.38
2022-12-24T18:41:07.234Z,97835.03
2022-12-24T18:43:37.341Z,97825.53
2022-12-24T18:46:10.055Z,97830.72
2022-12-24T18:48:40.639Z,97815.16
2022-12-24T18:51:13.552Z,97827.25
2022-12-24T18:53:43.845Z,97822.06
2022-12-24T18:56:15.877Z,97844.56
2022-12-24T18:58:46.359Z,97850.63
2022-12-24T19:01:18.006Z,97848.00
2022-12-24T19:03:48.213Z,97859.25
2022-12-24T19:06:20.516Z,97855.78
2022-12-24T19:09:00.161Z,97856.66
2022-12-24T19:11:33.588Z,97864.44
2022-12-24T19:14:04.554Z,97775.38
2022-12-24T19:16:41.356Z,97861.84
2022-12-24T19:19:14.580Z,97840.25
2022-12-24T19:21:46.513Z,97878.28
2022-12-24T19:24:16.414Z,97844.53
2022-12-24T19:26:46.738Z,97875.69
2022-12-24T19:29:16.892Z,97835.91
2022-12-24T19:31:48.326Z,97874.84
2022-12-24T19:34:18.698Z,97842.84
2022-12-24T19:36:51.162Z,97885.19
2022-12-24T19:39:25.360Z,97885.22
2022-12-24T19:42:00.403Z,97889.53
2022-12-24T19:44:31.472Z,97898.19
2022-12-24T19:47:01.518Z,97856.69
2022-12-24T19:49:32.077Z,97908.56
2022-12-24T19:52:04.120Z,97906.81
2022-12-24T19:54:34.739Z,97885.19
2022-12-24T19:57:05.644Z,97903.38
2022-12-24T19:59:36.239Z,97906.81
2022-12-24T20:02:06.698Z,97920.69
2022-12-24T20:04:37.095Z,97894.72
2022-12-24T20:07:08.880Z,97927.59
2022-12-24T20:09:39.817Z,97924.97
2022-12-24T20:12:11.083Z,97914.59
2022-12-24T20:14:41.234Z,97919.81
2022-12-24T20:17:11.333Z,97900.78
2022-12-24T20:19:41.455Z,97903.38
2022-12-24T20:22:13.433Z,97911.16
2022-12-24T20:24:43.442Z,97914.63
2022-12-24T20:27:13.953Z,97904.22
2022-12-24T20:29:43.955Z,97909.44
2022-12-24T20:32:14.194Z,97918.06
2022-12-24T20:34:44.638Z,97918.09
2022-12-24T20:37:16.725Z,97918.06
2022-12-24T20:39:46.893Z,97924.13
2022-12-24T20:42:16.838Z,97928.47
2022-12-24T20:44:46.972Z,97936.25
2022-12-24T20:47:17.092Z,97944.03
2022-12-24T20:49:47.173Z,97909.41
2022-12-24T20:52:18.854Z,97927.59
2022-12-24T20:54:48.993Z,97934.53
2022-12-24T20:57:25.216Z,97931.91
2022-12-24T20:59:57.730Z,97893.00
2022-12-24T21:02:27.779Z,97913.75
2022-12-24T21:05:02.195Z,97943.19
2022-12-24T21:07:34.996Z,97918.94
2022-12-24T21:10:05.116Z,97934.50
2022-12-24T21:12:53.020Z,97937.13
2022-12-24T21:15:24.893Z,97937.94
2022-12-24T21:17:55.892Z,97941.44
2022-12-24T21:20:31.101Z,97937.13
2022-12-24T21:23:03.992Z,97940.56
2022-12-24T21:25:34.556Z,97918.06
2022-12-24T21:28:05.219Z,97938.81
2022-12-24T21:30:35.430Z,97939.69
2022-12-24T21:33:05.392Z,97938.00
2022-12-24T21:35:35.597Z,97937.97
2022-12-24T21:38:07.263Z,97944.91
2022-12-24T21:40:37.461Z,97943.16
2022-12-24T21:43:08.175Z,97949.22
2022-12-24T21:45:41.941Z,97941.44
2022-12-24T21:48:32.425Z,97958.75
2022-12-24T21:51:01.173Z,97944.91
2022-12-24T21:53:49.938Z,97949.22
2022-12-24T21:56:20.555Z,97948.34
2022-12-24T21:58:51.825Z,97944.88
2022-12-24T22:01:22.697Z,97944.03
2022-12-24T22:03:53.514Z,97949.22
2022-12-24T22:06:40.892Z,97944.03
2022-12-24T22:09:30.871Z,97934.50
2022-12-24T22:12:01.439Z,97937.09
2022-12-24T22:14:31.592Z,97935.38
2022-12-24T22:17:01.834Z,97930.19
2022-12-24T22:19:33.451Z,97911.16
2022-12-24T22:22:03.772Z,97907.69
2022-12-24T22:24:35.575Z,97932.78
2022-12-24T22:27:06.172Z,97931.03
2022-12-24T22:29:37.662Z,97932.78
2022-12-24T22:32:07.852Z,97933.66
2022-12-24T22:34:39.042Z,97927.59
2022-12-24T22:37:09.120Z,97912.03
2022-12-24T22:39:41.493Z,97934.50
2022-12-24T22:42:11.612Z,97933.66
2022-12-24T22:44:41.856Z,97926.72
2022-12-24T22:47:11.872Z,97926.72
2022-12-24T22:49:42.151Z,97881.72
2022-12-24T22:52:12.532Z,97920.66
2022-12-24T22:54:44.832Z,97943.16
2022-12-24T22:57:15.132Z,97925.88
2022-12-24T22:59:45.475Z,97949.22
2022-12-24T23:02:17.436Z,97913.75
2022-12-24T23:04:49.493Z,97956.16
2022-12-24T23:07:19.878Z,97952.69
2022-12-24T23:09:52.270Z,97944.88
2022-12-24T23:12:42.399Z,97957.00
2022-12-24T23:15:11.863Z,97950.94
2022-12-24T23:17:42.200Z,97922.41
2022-12-24T23:20:13.279Z,97950.09
2022-12-24T23:22:43.433Z,97959.63
2022-12-24T23:25:15.452Z,97916.34
2022-12-24T23:27:45.453Z,97946.59
2022-12-24T23:30:15.961Z,97950.97
2022-12-24T23:32:46.371Z,97944.91
2022-12-24T23:35:16.456Z,97944.03
2022-12-24T23:37:46.833Z,97950.09
2022-12-24T23:40:18.895Z,97942.28
2022-12-24T23:42:49.358Z,97940.56
2022-12-24T23:45:19.694Z,97937.97
2022-12-24T23:47:50.103Z,97946.63
2022-12-24T23:50:20.115Z,97946.63
2022-12-24T23:52:50.050Z,97953.56
2022-12-24T23:55:21.712Z,97952.69
2022-12-24T23:57:50.714Z,97951.81
